Time;durP1;ratioP1;P1;durP2;ratioP2;P2;SDS_P1;SDS_P2;PMS_P1;PMS_P2;Temp;Humidity;BMP_temperature;BMP_pressure;BME280_temperature;BME280_humidity;BME280_pressure;Samples;Min_cycle;Max_cycle;Signal;HPM_P1;HPM_P2
2022/01/23 00:00:02;;;;;;;;;;;6.30;99.90;;;;;;5107997;27;20314;-82
2022/01/23 00:02:27;;;;;;;;;;;6.20;99.90;;;;;;5112978;27;19924;-81
2022/01/23 00:04:53;;;;;;;;;;;6.30;99.90;;;;;;5090585;27;20310;-82
2022/01/23 00:07:18;;;;;;;;;;;6.30;99.90;;;;;;5103761;28;19924;-81
2022/01/23 00:09:44;;;;;;;;;;;6.20;99.90;;;;;;5113176;27;19931;-81
2022/01/23 00:12:14;;;;;;;;;;;6.20;99.90;;;;;;5109494;28;20280;-81
2022/01/23 00:17:27;;;;;;;;;;;6.20;99.90;;;;;;5103022;27;20006;-82
2022/01/23 00:19:54;;;;;;;;;;;6.20;99.90;;;;;;5131553;27;20450;-82
2022/01/23 00:22:23;;;;;;;;;;;6.20;99.90;;;;;;5115480;27;19973;-81
2022/01/23 00:30:31;;;;;;;;;;;6.20;99.90;;;;;;5097594;28;20037;-81
2022/01/23 00:33:01;;;;;;;;;;;6.20;99.90;;;;;;5094836;28;19927;-81
2022/01/23 00:35:27;;;;;;;;;;;6.10;99.90;;;;;;5112243;28;19931;-82
2022/01/23 00:37:52;;;;;;;;;;;6.20;99.90;;;;;;5094700;28;19981;-81
2022/01/23 00:40:18;;;;;;;;;;;6.20;99.90;;;;;;5114302;28;19931;-81
2022/01/23 00:42:44;;;;;;;;;;;6.20;99.90;;;;;;5115051;28;19935;-81
2022/01/23 00:47:59;;;;;;;;;;;6.20;99.90;;;;;;5111946;28;19993;-81
2022/01/23 00:50:25;;;;;;;;;;;6.20;99.90;;;;;;5128522;28;19932;-82
2022/01/23 00:52:50;;;;;;;;;;;6.10;99.90;;;;;;5115262;28;20360;-81
2022/01/23 00:55:16;;;;;;;;;;;6.10;99.90;;;;;;5130293;28;19946;-81
2022/01/23 00:57:42;;;;;;;;;;;6.10;99.90;;;;;;5088767;28;20026;-82
2022/01/23 01:00:08;;;;;;;;;;;6.00;99.90;;;;;;5122354;28;20025;-81
2022/01/23 01:02:34;;;;;;;;;;;6.00;99.90;;;;;;5132259;28;19924;-82
2022/01/23 01:04:59;;;;;;;;;;;6.00;99.90;;;;;;5114850;28;19934;-82
2022/01/23 01:07:25;;;;;;;;;;;6.10;99.90;;;;;;5132510;28;19927;-82
2022/01/23 01:09:53;;;;;;;;;;;6.10;99.90;;;;;;5114510;28;19923;-82
2022/01/23 01:12:37;;;;;;;;;;;6.10;99.90;;;;;;5132333;28;19923;-82
2022/01/23 01:15:57;;;;;;;;;;;6.10;99.90;;;;;;5115890;28;20010;-81
2022/01/23 01:31:35;;;;;;;;;;;6.10;99.90;;;;;;5134235;27;19930;-82
2022/01/23 01:34:12;;;;;;;;;;;6.10;99.90;;;;;;5134982;27;19924;-82
2022/01/23 01:39:09;;;;;;;;;;;6.10;99.90;;;;;;5135923;27;19979;-82
2022/01/23 01:41:36;;;;;;;;;;;6.10;99.90;;;;;;5135406;27;20419;-81
2022/01/23 01:44:02;;;;;;;;;;;6.10;99.90;;;;;;5134483;27;20355;-82
2022/01/23 01:46:28;;;;;;;;;;;6.10;99.90;;;;;;5135661;27;19977;-81
2022/01/23 01:48:54;;;;;;;;;;;6.10;99.90;;;;;;5134984;27;20006;-82
2022/01/23 01:51:20;;;;;;;;;;;6.10;99.90;;;;;;5118148;27;20046;-81
2022/01/23 01:53:52;;;;;;;;;;;6.20;99.90;;;;;;5100880;27;19924;-83
2022/01/23 01:56:18;;;;;;;;;;;6.10;99.90;;;;;;5135421;27;19931;-81
2022/01/23 02:09:15;;;;;;;;;;;6.10;99.90;;;;;;5134806;27;19990;-82
2022/01/23 02:14:31;;;;;;;;;;;6.00;99.90;;;;;;5114065;28;19935;-81
2022/01/23 02:23:22;;;;;;;;;;;6.10;99.90;;;;;;5116179;27;19981;-82
2022/01/23 02:55:13;;;;;;;;;;;6.10;99.90;;;;;;5088035;27;19923;-82
2022/01/23 03:00:13;;;;;;;;;;;6.00;99.90;;;;;;5098354;28;19998;-82
2022/01/23 03:02:48;;;;;;;;;;;6.10;99.90;;;;;;5113374;28;19928;-81
2022/01/23 03:05:35;;;;;;;;;;;6.10;99.90;;;;;;5121942;27;19923;-82
2022/01/23 03:08:16;;;;;;;;;;;6.00;99.90;;;;;;5113219;28;19973;-82
2022/01/23 03:10:47;;;;;;;;;;;6.00;99.90;;;;;;5113684;28;19931;-82
2022/01/23 03:26:55;;;;;;;;;;;6.10;99.90;;;;;;5133223;27;19923;-81
2022/01/23 03:29:24;;;;;;;;;;;6.00;99.90;;;;;;5116627;27;20438;-82
2022/01/23 03:34:23;;;;;;;;;;;6.00;99.90;;;;;;5133452;27;19989;-81
2022/01/23 03:36:49;;;;;;;;;;;6.00;99.90;;;;;;5132150;27;19927;-82
2022/01/23 03:39:15;;;;;;;;;;;6.00;99.90;;;;;;5095440;28;19935;-81
2022/01/23 03:41:42;;;;;;;;;;;6.00;99.90;;;;;;5095713;28;19945;-81
2022/01/23 03:44:09;;;;;;;;;;;5.90;99.90;;;;;;5095723;28;20292;-81
2022/01/23 03:51:45;;;;;;;;;;;5.80;99.90;;;;;;5133438;27;19931;-81
2022/01/23 03:54:10;;;;;;;;;;;5.70;99.90;;;;;;5115105;27;20329;-82
2022/01/23 03:56:36;;;;;;;;;;;5.70;99.90;;;;;;5115458;27;19923;-81
2022/01/23 03:59:01;;;;;;;;;;;5.60;99.90;;;;;;5132563;27;19923;-81
2022/01/23 04:01:27;;;;;;;;;;;5.60;99.90;;;;;;5133124;27;20291;-81
2022/01/23 04:03:56;;;;;;;;;;;5.60;99.90;;;;;;5133133;27;19923;-81
2022/01/23 04:06:22;;;;;;;;;;;5.50;99.90;;;;;;5132760;27;19927;-81
2022/01/23 04:08:49;;;;;;;;;;;5.60;99.90;;;;;;5132406;27;19927;-81
2022/01/23 04:11:14;;;;;;;;;;;5.60;99.90;;;;;;5115562;27;19927;-82
2022/01/23 04:13:57;;;;;;;;;;;5.50;99.90;;;;;;5115941;27;19930;-81
2022/01/23 04:32:59;;;;;;;;;;;5.50;99.90;;;;;;5132929;27;19932;-81
2022/01/23 04:47:05;;;;;;;;;;;5.60;99.90;;;;;;5111688;28;20399;-81
2022/01/23 05:00:10;;;;;;;;;;;5.70;99.90;;;;;;5116278;28;19923;-81
2022/01/23 05:05:18;;;;;;;;;;;5.70;99.90;;;;;;5133049;27;19974;-81
2022/01/23 05:07:46;;;;;;;;;;;5.80;99.90;;;;;;5102503;27;20040;-81
2022/01/23 05:10:12;;;;;;;;;;;5.80;99.90;;;;;;5135660;27;19945;-81
2022/01/23 05:12:37;;;;;;;;;;;5.80;99.90;;;;;;5136168;27;19928;-81
2022/01/23 05:15:05;;;;;;;;;;;5.80;99.90;;;;;;5119008;27;19923;-80
2022/01/23 05:17:31;;;;;;;;;;;5.80;99.90;;;;;;5135975;27;19988;-81
2022/01/23 05:19:56;;;;;;;;;;;5.90;99.90;;;;;;5135570;27;20360;-81
2022/01/23 05:25:24;;;;;;;;;;;5.80;99.90;;;;;;5101616;27;19985;-81
2022/01/23 05:27:54;;;;;;;;;;;5.80;99.90;;;;;;5135941;27;19930;-81
2022/01/23 05:30:20;;;;;;;;;;;5.80;99.90;;;;;;5119025;27;19975;-81
2022/01/23 05:32:46;;;;;;;;;;;5.80;99.90;;;;;;5118416;27;19934;-81
2022/01/23 05:35:13;;;;;;;;;;;5.80;99.90;;;;;;5118710;27;19923;-81
2022/01/23 05:37:39;;;;;;;;;;;5.80;99.90;;;;;;5135801;27;20316;-81
2022/01/23 05:40:06;;;;;;;;;;;5.90;99.90;;;;;;5118764;27;20277;-81
2022/01/23 05:42:32;;;;;;;;;;;5.80;99.90;;;;;;5113907;28;19931;-81
2022/01/23 05:44:57;;;;;;;;;;;5.80;99.90;;;;;;5115035;28;19927;-81
2022/01/23 05:47:23;;;;;;;;;;;5.80;99.90;;;;;;5114673;28;19924;-81
2022/01/23 05:49:49;;;;;;;;;;;5.80;99.90;;;;;;5097858;28;19977;-81
2022/01/23 05:52:15;;;;;;;;;;;5.80;99.90;;;;;;5124968;27;19935;-81
2022/01/23 05:54:41;;;;;;;;;;;5.80;99.90;;;;;;5134527;27;19924;-81
2022/01/23 05:57:07;;;;;;;;;;;5.80;99.90;;;;;;5118127;27;19930;-81
2022/01/23 05:59:32;;;;;;;;;;;5.80;99.90;;;;;;5134783;27;19928;-81
2022/01/23 06:01:58;;;;;;;;;;;5.80;99.90;;;;;;5101130;27;20283;-81
2022/01/23 06:04:24;;;;;;;;;;;5.80;99.90;;;;;;5134718;27;19924;-81
2022/01/23 06:06:50;;;;;;;;;;;5.80;99.90;;;;;;5101253;27;20368;-81
2022/01/23 06:09:17;;;;;;;;;;;5.80;99.90;;;;;;5134568;27;19924;-81
2022/01/23 06:11:42;;;;;;;;;;;5.80;99.90;;;;;;5118083;27;20450;-81
2022/01/23 06:14:09;;;;;;;;;;;5.80;99.90;;;;;;5136276;27;20029;-81
2022/01/23 06:16:35;;;;;;;;;;;5.80;99.90;;;;;;5128881;27;19927;-81
2022/01/23 06:19:00;;;;;;;;;;;5.80;99.90;;;;;;5116721;27;19931;-81
2022/01/23 06:21:27;;;;;;;;;;;5.70;99.90;;;;;;5109600;27;19976;-81
2022/01/23 06:24:02;;;;;;;;;;;5.80;99.90;;;;;;5125601;27;19927;-81
2022/01/23 06:26:33;;;;;;;;;;;5.70;99.90;;;;;;5125436;27;20499;-81
2022/01/23 06:29:01;;;;;;;;;;;5.80;99.90;;;;;;5123225;27;19977;-81
2022/01/23 06:31:27;;;;;;;;;;;5.80;99.90;;;;;;5125826;27;19923;-81
2022/01/23 06:33:53;;;;;;;;;;;5.70;99.90;;;;;;5124065;27;19950;-81
2022/01/23 06:36:18;;;;;;;;;;;5.80;99.90;;;;;;5124415;27;20298;-82
2022/01/23 06:38:44;;;;;;;;;;;5.70;99.90;;;;;;5108247;27;20383;-80
2022/01/23 06:41:09;;;;;;;;;;;5.70;99.90;;;;;;5090286;27;19931;-81
2022/01/23 06:43:35;;;;;;;;;;;5.70;99.90;;;;;;5123972;27;19923;-81
2022/01/23 06:46:01;;;;;;;;;;;5.70;99.90;;;;;;5127791;27;19923;-81
2022/01/23 06:48:26;;;;;;;;;;;5.70;99.90;;;;;;5110623;27;19923;-81
2022/01/23 06:50:52;;;;;;;;;;;5.70;99.90;;;;;;5115263;27;19938;-81
2022/01/23 06:53:17;;;;;;;;;;;5.70;99.90;;;;;;5125329;27;19928;-81
2022/01/23 06:55:43;;;;;;;;;;;5.70;99.90;;;;;;5125752;27;19923;-81
2022/01/23 06:58:08;;;;;;;;;;;5.70;99.90;;;;;;5107615;27;19932;-81
2022/01/23 07:00:35;;;;;;;;;;;5.70;99.90;;;;;;5124769;27;19934;-81
2022/01/23 07:03:01;;;;;;;;;;;5.70;99.90;;;;;;5106230;27;19927;-81
2022/01/23 07:05:26;;;;;;;;;;;5.70;99.90;;;;;;5132723;27;19972;-81
2022/01/23 07:07:52;;;;;;;;;;;5.70;99.90;;;;;;5133704;27;19927;-81
2022/01/23 07:10:20;;;;;;;;;;;5.70;99.90;;;;;;5096271;28;19924;-82
2022/01/23 07:12:45;;;;;;;;;;;5.70;99.90;;;;;;5127291;27;20542;-80
2022/01/23 07:15:11;;;;;;;;;;;5.70;99.90;;;;;;5133820;27;19923;-83
2022/01/23 07:17:40;;;;;;;;;;;5.70;99.90;;;;;;5116368;27;19923;-82
2022/01/23 07:20:06;;;;;;;;;;;5.70;99.90;;;;;;5116495;27;19923;-81
2022/01/23 07:22:32;;;;;;;;;;;5.80;99.90;;;;;;5117309;27;19931;-81
2022/01/23 07:25:01;;;;;;;;;;;5.80;99.90;;;;;;5100022;27;19927;-83
2022/01/23 07:27:29;;;;;;;;;;;5.70;99.90;;;;;;5125749;27;20374;-82
2022/01/23 07:29:55;;;;;;;;;;;5.70;99.90;;;;;;5107525;27;20436;-83
2022/01/23 07:32:21;;;;;;;;;;;5.70;99.90;;;;;;5125825;27;19924;-82
2022/01/23 07:34:46;;;;;;;;;;;5.70;99.90;;;;;;5123515;27;19987;-81
2022/01/23 07:37:13;;;;;;;;;;;5.70;99.90;;;;;;5124665;27;19966;-81
2022/01/23 07:39:39;;;;;;;;;;;5.80;99.90;;;;;;5103466;27;19966;-81
2022/01/23 07:42:05;;;;;;;;;;;5.70;99.90;;;;;;5122169;27;20306;-80
2022/01/23 07:44:31;;;;;;;;;;;5.70;99.90;;;;;;5106032;27;19932;-82
2022/01/23 07:46:56;;;;;;;;;;;5.80;99.90;;;;;;5105984;27;20272;-82
2022/01/23 07:49:23;;;;;;;;;;;5.70;99.90;;;;;;5122018;27;19931;-82
2022/01/23 07:51:48;;;;;;;;;;;5.70;99.90;;;;;;5106254;27;19930;-81
2022/01/23 07:54:14;;;;;;;;;;;5.70;99.90;;;;;;5123391;27;19924;-80
2022/01/23 07:56:42;;;;;;;;;;;5.70;99.90;;;;;;5127962;27;20053;-81
2022/01/23 07:59:10;;;;;;;;;;;5.80;99.90;;;;;;5115815;27;19970;-83
2022/01/23 08:01:39;;;;;;;;;;;5.80;99.90;;;;;;5120458;27;19924;-82
2022/01/23 08:04:05;;;;;;;;;;;5.80;99.90;;;;;;5096443;27;19983;-82
2022/01/23 08:06:33;;;;;;;;;;;5.80;99.90;;;;;;5105602;27;19972;-81
2022/01/23 08:08:59;;;;;;;;;;;5.80;99.90;;;;;;5132049;27;20014;-81
2022/01/23 08:11:24;;;;;;;;;;;5.80;99.90;;;;;;5092666;27;20007;-81
2022/01/23 08:13:50;;;;;;;;;;;5.80;99.90;;;;;;5098665;27;20497;-82
2022/01/23 08:16:15;;;;;;;;;;;5.80;99.90;;;;;;5115703;27;19923;-82
2022/01/23 08:18:41;;;;;;;;;;;5.80;99.90;;;;;;5115107;27;19972;-82
2022/01/23 08:21:07;;;;;;;;;;;5.80;99.90;;;;;;5132174;27;20314;-81
2022/01/23 08:23:33;;;;;;;;;;;5.80;99.90;;;;;;5114838;27;20022;-82
2022/01/23 08:25:59;;;;;;;;;;;5.80;99.90;;;;;;5109100;27;20379;-81
2022/01/23 08:28:24;;;;;;;;;;;5.80;99.90;;;;;;5132164;27;20019;-81
2022/01/23 08:30:50;;;;;;;;;;;5.80;99.90;;;;;;5115364;28;20015;-82
2022/01/23 08:33:16;;;;;;;;;;;5.90;99.90;;;;;;5132054;27;19924;-82
2022/01/23 08:35:43;;;;;;;;;;;5.80;99.90;;;;;;5109530;28;19949;-82
2022/01/23 08:38:09;;;;;;;;;;;5.80;99.90;;;;;;5089086;28;19975;-82
2022/01/23 08:40:47;;;;;;;;;;;5.80;99.90;;;;;;5120331;27;19969;-82
2022/01/23 08:43:14;;;;;;;;;;;5.90;99.90;;;;;;5110324;28;19969;-82
2022/01/23 08:45:40;;;;;;;;;;;5.90;99.90;;;;;;5131854;28;19923;-83
2022/01/23 08:48:06;;;;;;;;;;;6.00;99.90;;;;;;5115581;28;19924;-83
2022/01/23 08:50:31;;;;;;;;;;;6.00;99.90;;;;;;5114953;28;19923;-83
2022/01/23 08:52:57;;;;;;;;;;;6.00;99.90;;;;;;5115088;28;19970;-85
2022/01/23 08:55:22;;;;;;;;;;;6.00;99.90;;;;;;5114267;28;19927;-84
2022/01/23 08:57:48;;;;;;;;;;;6.00;99.90;;;;;;5095480;28;20130;-80
2022/01/23 09:00:14;;;;;;;;;;;6.00;99.90;;;;;;5123953;28;19931;-81
2022/01/23 09:02:40;;;;;;;;;;;6.00;99.90;;;;;;5128249;28;19923;-82
2022/01/23 09:05:06;;;;;;;;;;;6.00;99.90;;;;;;5119441;28;19931;-83
2022/01/23 09:07:32;;;;;;;;;;;6.10;99.90;;;;;;5112287;28;20307;-82
2022/01/23 09:10:02;;;;;;;;;;;6.10;99.90;;;;;;5095280;28;19924;-83
2022/01/23 09:15:03;;;;;;;;;;;6.10;99.90;;;;;;5128866;28;19931;-82
2022/01/23 09:17:29;;;;;;;;;;;6.10;99.90;;;;;;5110997;28;19924;-82
2022/01/23 09:19:54;;;;;;;;;;;6.20;99.90;;;;;;5081634;28;20018;-81
2022/01/23 09:22:20;;;;;;;;;;;6.20;99.90;;;;;;5130929;28;19931;-82
2022/01/23 09:24:45;;;;;;;;;;;6.20;99.90;;;;;;5114499;28;20287;-82
2022/01/23 09:27:18;;;;;;;;;;;6.20;99.90;;;;;;5131897;28;20359;-83
2022/01/23 09:29:47;;;;;;;;;;;6.20;99.90;;;;;;5110071;28;19923;-82
2022/01/23 09:32:14;;;;;;;;;;;6.30;99.90;;;;;;5130861;28;19972;-83
2022/01/23 09:34:42;;;;;;;;;;;6.20;99.90;;;;;;5114277;28;19924;-82
2022/01/23 09:37:08;;;;;;;;;;;6.20;99.90;;;;;;5113192;28;20379;-82
2022/01/23 09:39:34;;;;;;;;;;;6.20;99.90;;;;;;5110616;28;19969;-82
2022/01/23 09:42:10;;;;;;;;;;;6.40;99.90;;;;;;5111805;28;19962;-82
2022/01/23 09:44:39;;;;;;;;;;;6.30;99.90;;;;;;5124145;28;20021;-81
2022/01/23 09:47:05;;;;;;;;;;;6.30;99.90;;;;;;5098035;28;20299;-81
2022/01/23 09:49:31;;;;;;;;;;;6.30;99.90;;;;;;5122170;28;19923;-82
2022/01/23 09:52:00;;;;;;;;;;;6.30;99.90;;;;;;5110515;28;19928;-81
2022/01/23 09:54:28;;;;;;;;;;;6.30;99.90;;;;;;5132488;27;19971;-82
2022/01/23 09:56:53;;;;;;;;;;;6.40;99.90;;;;;;5134372;27;19924;-82
2022/01/23 09:59:19;;;;;;;;;;;6.40;99.90;;;;;;5114216;28;19946;-83
2022/01/23 10:01:48;;;;;;;;;;;6.40;99.90;;;;;;5114263;28;19932;-83
2022/01/23 10:04:14;;;;;;;;;;;6.40;99.90;;;;;;5130619;27;19938;-84
2022/01/23 10:06:39;;;;;;;;;;;6.50;99.90;;;;;;5132291;27;19923;-83
2022/01/23 10:09:06;;;;;;;;;;;6.50;99.90;;;;;;5133535;27;20010;-85
2022/01/23 10:11:37;;;;;;;;;;;6.60;99.90;;;;;;5100117;27;19967;-86
2022/01/23 10:14:03;;;;;;;;;;;6.60;99.90;;;;;;5129020;27;20010;-85
2022/01/23 10:16:30;;;;;;;;;;;6.60;99.90;;;;;;5127883;27;19932;-85
2022/01/23 10:18:56;;;;;;;;;;;6.60;99.90;;;;;;5115490;27;19961;-85
2022/01/23 10:21:22;;;;;;;;;;;6.60;99.90;;;;;;5103044;27;19962;-88
2022/01/23 10:23:48;;;;;;;;;;;6.60;99.90;;;;;;5117697;27;19928;-85
2022/01/23 10:26:34;;;;;;;;;;;6.70;99.90;;;;;;5135236;27;19930;-87
2022/01/23 10:29:15;;;;;;;;;;;6.80;99.90;;;;;;5134364;27;19927;-84
2022/01/23 10:32:00;;;;;;;;;;;6.70;99.90;;;;;;5115906;27;19924;-82
2022/01/23 10:34:40;;;;;;;;;;;6.80;99.90;;;;;;5113860;28;19927;-84
2022/01/23 10:37:06;;;;;;;;;;;6.80;99.90;;;;;;5096849;28;19976;-83
2022/01/23 10:39:44;;;;;;;;;;;6.80;99.90;;;;;;5100389;27;19928;-86
2022/01/23 10:48:40;;;;;;;;;;;6.80;99.90;;;;;;5134297;27;19923;-83
2022/01/23 10:51:17;;;;;;;;;;;6.70;99.90;;;;;;5127718;27;19966;-83
2022/01/23 10:53:58;;;;;;;;;;;6.70;99.90;;;;;;5115456;27;19928;-82
2022/01/23 10:56:24;;;;;;;;;;;6.70;99.90;;;;;;5133670;27;19934;-83
2022/01/23 10:59:01;;;;;;;;;;;6.80;99.90;;;;;;5110534;27;20432;-83
2022/01/23 11:01:29;;;;;;;;;;;6.80;99.90;;;;;;5133009;27;19988;-83
2022/01/23 11:04:04;;;;;;;;;;;6.80;99.90;;;;;;5114934;27;19927;-83
2022/01/23 11:06:30;;;;;;;;;;;6.80;99.90;;;;;;5133374;27;20384;-84
2022/01/23 11:09:08;;;;;;;;;;;6.80;99.90;;;;;;5133860;27;19923;-84
2022/01/23 11:11:44;;;;;;;;;;;6.90;99.90;;;;;;5112953;27;19976;-83
2022/01/23 11:19:46;;;;;;;;;;;6.90;99.90;;;;;;5115196;27;19924;-83
2022/01/23 11:22:15;;;;;;;;;;;6.90;99.90;;;;;;5130730;27;19923;-81
2022/01/23 11:24:48;;;;;;;;;;;6.90;99.90;;;;;;5135720;27;19930;-80
2022/01/23 11:27:14;;;;;;;;;;;7.00;99.90;;;;;;5137000;27;20018;-82
2022/01/23 11:29:57;;;;;;;;;;;7.00;99.90;;;;;;5136410;27;20355;-82
2022/01/23 11:32:25;;;;;;;;;;;7.00;99.90;;;;;;5118811;27;19927;-81
2022/01/23 11:34:55;;;;;;;;;;;7.00;99.90;;;;;;5132404;27;19923;-81
2022/01/23 11:37:21;;;;;;;;;;;7.00;99.90;;;;;;5136032;27;19991;-82
2022/01/23 11:39:52;;;;;;;;;;;7.00;99.90;;;;;;5135886;27;20454;-83
2022/01/23 11:56:24;;;;;;;;;;;7.10;99.90;;;;;;5122298;27;19995;-82
2022/01/23 11:58:55;;;;;;;;;;;7.10;99.90;;;;;;5098403;27;19935;-82
2022/01/23 12:01:24;;;;;;;;;;;7.10;99.90;;;;;;5115861;27;19924;-82
2022/01/23 12:04:08;;;;;;;;;;;7.10;99.90;;;;;;5134337;27;19930;-83
2022/01/23 12:06:35;;;;;;;;;;;7.20;99.90;;;;;;5134881;27;19989;-82
2022/01/23 12:09:10;;;;;;;;;;;7.20;99.90;;;;;;5129129;27;20252;-82
2022/01/23 12:11:42;;;;;;;;;;;7.20;99.90;;;;;;5100063;27;19971;-82
2022/01/23 12:16:57;;;;;;;;;;;7.20;99.90;;;;;;5081111;27;19923;-82
2022/01/23 12:19:24;;;;;;;;;;;7.10;99.90;;;;;;5118060;27;19927;-82
2022/01/23 12:21:52;;;;;;;;;;;7.20;99.90;;;;;;5135446;27;19929;-82
2022/01/23 12:24:18;;;;;;;;;;;7.20;99.90;;;;;;5135694;27;19931;-82
2022/01/23 12:26:44;;;;;;;;;;;7.20;99.90;;;;;;5091809;27;19923;-80
2022/01/23 12:29:13;;;;;;;;;;;7.20;99.90;;;;;;5109709;27;20363;-82
2022/01/23 12:31:39;;;;;;;;;;;7.30;99.90;;;;;;5135308;27;19930;-82
2022/01/23 12:34:05;;;;;;;;;;;7.30;99.90;;;;;;5135155;27;20291;-86
2022/01/23 12:36:32;;;;;;;;;;;7.30;99.90;;;;;;5135461;27;19923;-81
2022/01/23 12:39:14;;;;;;;;;;;7.30;99.90;;;;;;5134640;27;19927;-82
2022/01/23 12:42:02;;;;;;;;;;;7.30;99.90;;;;;;5098610;28;19923;-82
2022/01/23 12:44:28;;;;;;;;;;;7.30;99.90;;;;;;5115061;28;19968;-82
2022/01/23 12:46:58;;;;;;;;;;;7.30;99.90;;;;;;5117405;27;20002;-83
2022/01/23 12:49:24;;;;;;;;;;;7.30;99.90;;;;;;5116983;27;20364;-82
2022/01/23 12:51:51;;;;;;;;;;;7.30;99.90;;;;;;5135332;27;20010;-83
2022/01/23 12:54:21;;;;;;;;;;;7.30;99.90;;;;;;5134696;27;19991;-82
2022/01/23 12:56:48;;;;;;;;;;;7.30;99.90;;;;;;5115220;27;19923;-81
2022/01/23 12:59:21;;;;;;;;;;;7.30;99.90;;;;;;5118588;27;19970;-82
2022/01/23 13:01:48;;;;;;;;;;;7.40;99.90;;;;;;5118147;27;19923;-82
2022/01/23 13:04:15;;;;;;;;;;;7.30;99.90;;;;;;5134471;27;20317;-82
2022/01/23 13:06:59;;;;;;;;;;;7.30;99.90;;;;;;5097768;28;19946;-82
2022/01/23 13:09:59;;;;;;;;;;;7.30;99.90;;;;;;5119871;27;20363;-82
2022/01/23 13:12:50;;;;;;;;;;;7.30;99.90;;;;;;5115008;28;19934;-82
2022/01/23 13:15:23;;;;;;;;;;;7.30;99.90;;;;;;5134623;27;19927;-82
2022/01/23 13:18:12;;;;;;;;;;;7.30;99.90;;;;;;5135240;27;19930;-82
2022/01/23 13:32:02;;;;;;;;;;;7.30;99.90;;;;;;5154760;27;19926;-82
2022/01/23 13:34:30;;;;;;;;;;;7.30;99.90;;;;;;5120304;27;19976;-81
2022/01/23 13:36:58;;;;;;;;;;;7.30;99.90;;;;;;5138249;27;20458;-82
2022/01/23 13:39:30;;;;;;;;;;;7.30;99.90;;;;;;5118999;27;19927;-82
2022/01/23 13:42:08;;;;;;;;;;;7.30;99.90;;;;;;5135854;27;19974;-83
2022/01/23 13:51:12;;;;;;;;;;;7.30;99.90;;;;;;5137670;27;20000;-82
2022/01/23 13:53:09;;;;;;;;;;;7.30;99.90;;;;;;5121054;27;19924;-83
2022/01/23 13:58:39;;;;;;;;;;;7.30;99.90;;;;;;5136576;27;19930;-83
2022/01/23 14:01:31;;;;;;;;;;;7.30;99.90;;;;;;5137747;27;20082;-82
2022/01/23 14:03:56;;;;;;;;;;;7.30;99.90;;;;;;5138323;27;19923;-83
2022/01/23 14:06:22;;;;;;;;;;;7.30;99.90;;;;;;5135230;27;19927;-82
2022/01/23 14:09:05;;;;;;;;;;;7.30;99.90;;;;;;5101536;27;19934;-82
2022/01/23 14:11:30;;;;;;;;;;;7.30;99.90;;;;;;5138586;27;19972;-82
2022/01/23 14:14:07;;;;;;;;;;;7.30;99.90;;;;;;5138609;27;20278;-82
2022/01/23 14:16:33;;;;;;;;;;;7.30;99.90;;;;;;5138281;27;19927;-82
2022/01/23 14:19:18;;;;;;;;;;;7.30;99.90;;;;;;5138049;27;19923;-82
2022/01/23 14:21:46;;;;;;;;;;;7.30;99.90;;;;;;5135648;27;19930;-82
2022/01/23 14:24:18;;;;;;;;;;;7.30;99.90;;;;;;5137398;27;19923;-81
2022/01/23 14:26:54;;;;;;;;;;;7.30;99.90;;;;;;5144353;27;19924;-82
2022/01/23 14:29:22;;;;;;;;;;;7.30;99.90;;;;;;5132920;27;20012;-82
2022/01/23 14:32:02;;;;;;;;;;;7.20;99.90;;;;;;5099340;27;20012;-82
2022/01/23 14:34:28;;;;;;;;;;;7.20;99.90;;;;;;5119929;27;19934;-81
2022/01/23 14:36:58;;;;;;;;;;;7.20;99.90;;;;;;5137269;27;19923;-80
2022/01/23 14:39:24;;;;;;;;;;;7.20;99.90;;;;;;5116159;27;20042;-81
2022/01/23 14:41:50;;;;;;;;;;;7.20;99.90;;;;;;5130751;27;20006;-83
2022/01/23 14:44:20;;;;;;;;;;;7.20;99.90;;;;;;5137079;27;19930;-83
2022/01/23 14:46:50;;;;;;;;;;;7.20;99.90;;;;;;5122079;27;19924;-82
2022/01/23 14:49:22;;;;;;;;;;;7.20;99.90;;;;;;5115778;27;20396;-84
2022/01/23 14:51:49;;;;;;;;;;;7.20;99.90;;;;;;5118897;27;19927;-83
2022/01/23 14:54:18;;;;;;;;;;;7.20;99.90;;;;;;5131523;27;19931;-83
2022/01/23 14:56:44;;;;;;;;;;;7.20;99.90;;;;;;5118377;27;19923;-81
2022/01/23 14:59:10;;;;;;;;;;;7.10;99.90;;;;;;5119253;27;19931;-82
2022/01/23 15:01:36;;;;;;;;;;;7.10;99.90;;;;;;5137779;27;19927;-82
2022/01/23 15:04:05;;;;;;;;;;;7.10;99.90;;;;;;5103240;27;19976;-82
2022/01/23 15:06:31;;;;;;;;;;;7.10;99.90;;;;;;5119942;27;19923;-82
2022/01/23 15:09:10;;;;;;;;;;;7.10;99.90;;;;;;5110597;27;19938;-83
2022/01/23 15:11:36;;;;;;;;;;;7.00;99.90;;;;;;5112035;27;19923;-81
2022/01/23 15:14:03;;;;;;;;;;;7.10;99.90;;;;;;5110756;27;19961;-82
2022/01/23 15:16:28;;;;;;;;;;;7.10;99.90;;;;;;5123314;27;19924;-83
2022/01/23 15:18:54;;;;;;;;;;;7.00;99.90;;;;;;5107719;27;20014;-82
2022/01/23 15:21:19;;;;;;;;;;;7.00;99.90;;;;;;5098869;27;19931;-82
2022/01/23 15:23:45;;;;;;;;;;;7.00;99.90;;;;;;5123175;27;20443;-82
2022/01/23 15:26:11;;;;;;;;;;;7.00;99.90;;;;;;5127084;27;20006;-81
2022/01/23 15:46:42;;;;;;;;;;;6.90;99.90;;;;;;5103602;27;19916;-81
2022/01/23 15:49:07;;;;;;;;;;;6.90;99.90;;;;;;5081853;28;19931;-82
2022/01/23 15:51:34;;;;;;;;;;;6.90;99.90;;;;;;5108796;28;20010;-80
2022/01/23 15:54:00;;;;;;;;;;;6.90;99.90;;;;;;5100404;28;19932;-82
2022/01/23 15:56:26;;;;;;;;;;;6.80;99.90;;;;;;5102113;28;19928;-81
2022/01/23 15:58:51;;;;;;;;;;;6.80;99.90;;;;;;5102766;28;20004;-83
2022/01/23 16:01:17;;;;;;;;;;;6.80;99.90;;;;;;5104628;28;20533;-82
2022/01/23 16:03:42;;;;;;;;;;;6.70;99.90;;;;;;5088705;28;19933;-82
2022/01/23 16:06:08;;;;;;;;;;;6.80;99.90;;;;;;5071508;28;20018;-83
2022/01/23 16:08:35;;;;;;;;;;;6.80;99.90;;;;;;5071758;28;19934;-82
2022/01/23 16:11:02;;;;;;;;;;;6.70;99.90;;;;;;5052352;28;20011;-80
2022/01/23 16:13:29;;;;;;;;;;;6.70;99.90;;;;;;5100054;28;19951;-81
2022/01/23 16:15:55;;;;;;;;;;;6.70;99.90;;;;;;5071957;28;20434;-81
2022/01/23 16:18:21;;;;;;;;;;;6.70;99.90;;;;;;5095136;28;19932;-83
2022/01/23 16:20:46;;;;;;;;;;;6.70;99.90;;;;;;5069881;28;20297;-84
2022/01/23 16:23:12;;;;;;;;;;;6.70;99.90;;;;;;5076283;28;19936;-82
2022/01/23 16:25:37;;;;;;;;;;;6.70;99.90;;;;;;5069977;28;19928;-84
2022/01/23 16:28:03;;;;;;;;;;;6.70;99.90;;;;;;5103478;28;19979;-83
2022/01/23 16:30:41;;;;;;;;;;;6.70;99.90;;;;;;5085687;28;19924;-82
2022/01/23 16:33:06;;;;;;;;;;;6.70;99.90;;;;;;5085650;28;20269;-83
2022/01/23 16:35:32;;;;;;;;;;;6.60;99.90;;;;;;5084980;28;19936;-82
2022/01/23 16:37:57;;;;;;;;;;;6.60;99.90;;;;;;5087139;28;19928;-82
2022/01/23 16:40:23;;;;;;;;;;;6.50;99.90;;;;;;5087095;28;20023;-80
2022/01/23 16:42:49;;;;;;;;;;;6.60;99.90;;;;;;5087946;28;19924;-80
2022/01/23 16:45:14;;;;;;;;;;;6.60;99.90;;;;;;5069693;28;20004;-80
2022/01/23 16:47:40;;;;;;;;;;;6.60;99.90;;;;;;5085174;28;19924;-80
2022/01/23 16:50:06;;;;;;;;;;;6.60;99.90;;;;;;5080470;28;19928;-79
2022/01/23 16:52:31;;;;;;;;;;;6.60;99.90;;;;;;5085823;28;20369;-79
2022/01/23 16:54:57;;;;;;;;;;;6.60;99.90;;;;;;5083668;28;20019;-81
2022/01/23 16:57:23;;;;;;;;;;;6.60;99.90;;;;;;5063197;28;19932;-80
2022/01/23 16:59:48;;;;;;;;;;;6.60;99.90;;;;;;5072705;28;19976;-80
2022/01/23 17:02:14;;;;;;;;;;;6.60;99.90;;;;;;5071689;28;19924;-81
2022/01/23 17:04:40;;;;;;;;;;;6.60;99.90;;;;;;5054991;28;20003;-83
2022/01/23 17:07:05;;;;;;;;;;;6.60;99.90;;;;;;5055579;28;20050;-83
2022/01/23 17:09:32;;;;;;;;;;;6.50;99.90;;;;;;5072029;28;20293;-82
2022/01/23 17:11:59;;;;;;;;;;;6.60;99.90;;;;;;5063784;28;19982;-83
2022/01/23 17:14:25;;;;;;;;;;;6.50;99.90;;;;;;5055115;28;20019;-82
2022/01/23 17:16:51;;;;;;;;;;;6.50;99.90;;;;;;5072336;28;19958;-82
2022/01/23 17:19:16;;;;;;;;;;;6.50;99.90;;;;;;5071479;28;20424;-83
2022/01/23 17:21:42;;;;;;;;;;;6.50;99.90;;;;;;5071779;28;19932;-82
2022/01/23 17:24:07;;;;;;;;;;;6.50;99.90;;;;;;5077030;28;19936;-82
2022/01/23 17:26:33;;;;;;;;;;;6.50;99.90;;;;;;5071305;28;20015;-82
2022/01/23 17:28:59;;;;;;;;;;;6.60;99.90;;;;;;5071918;28;19928;-82
2022/01/23 17:31:25;;;;;;;;;;;6.50;99.90;;;;;;5067502;28;19931;-83
2022/01/23 17:33:50;;;;;;;;;;;6.50;99.90;;;;;;5092977;28;19924;-83
2022/01/23 17:36:16;;;;;;;;;;;6.50;99.90;;;;;;5081777;28;19944;-82
2022/01/23 17:38:42;;;;;;;;;;;6.50;99.90;;;;;;5061616;28;19978;-82
2022/01/23 17:41:07;;;;;;;;;;;6.40;99.90;;;;;;5088182;28;19954;-83
2022/01/23 17:43:33;;;;;;;;;;;6.50;99.90;;;;;;5069456;28;20405;-82
2022/01/23 17:46:00;;;;;;;;;;;6.50;99.90;;;;;;5096562;28;19925;-83
2022/01/23 17:51:13;;;;;;;;;;;6.40;99.90;;;;;;5068166;28;19990;-83
2022/01/23 17:53:40;;;;;;;;;;;6.40;99.90;;;;;;5080622;28;20271;-83
2022/01/23 17:56:06;;;;;;;;;;;6.30;99.90;;;;;;5099946;28;19931;-83
2022/01/23 17:58:31;;;;;;;;;;;6.40;99.90;;;;;;5069350;28;20019;-84
2022/01/23 18:00:57;;;;;;;;;;;6.40;99.90;;;;;;5070066;28;19928;-84
2022/01/23 18:03:22;;;;;;;;;;;6.40;99.90;;;;;;5071645;28;19932;-83
2022/01/23 18:05:49;;;;;;;;;;;6.40;99.90;;;;;;5071776;28;19925;-82
2022/01/23 18:08:15;;;;;;;;;;;6.30;99.90;;;;;;5069756;28;19924;-83
2022/01/23 18:10:41;;;;;;;;;;;6.30;99.90;;;;;;5055217;28;19936;-82
2022/01/23 18:13:10;;;;;;;;;;;6.30;99.90;;;;;;5056256;28;19924;-83